sensor_id;sensor_type;location;lat;lon;timestamp;temperature;humidity
10702;DHT22;5402;50.004;8.246;2023-05-07T00:02:01;15.90;99.90
10702;DHT22;5402;50.004;8.246;2023-05-07T00:04:28;15.80;99.90
10702;DHT22;5402;50.004;8.246;2023-05-07T00:07:01;15.80;99.90
10702;DHT22;5402;50.004;8.246;2023-05-07T00:09:27;15.80;99.90
10702;DHT22;5402;50.004;8.246;2023-05-07T00:11:54;15.80;99.90
10702;DHT22;5402;50.004;8.246;2023-05-07T00:14:21;15.80;99.90
10702;DHT22;5402;50.004;8.246;2023-05-07T00:16:49;15.80;99.90
10702;DHT22;5402;50.004;8.246;2023-05-07T00:19:15;15.80;99.90
10702;DHT22;5402;50.004;8.246;2023-05-07T00:21:42;15.90;99.90
10702;DHT22;5402;50.004;8.246;2023-05-07T00:24:09;15.90;99.90
10702;DHT22;5402;50.004;8.246;2023-05-07T00:26:35;15.90;99.90
10702;DHT22;5402;50.004;8.246;2023-05-07T00:29:02;16.00;99.90
10702;DHT22;5402;50.004;8.246;2023-05-07T00:31:29;16.00;99.90
10702;DHT22;5402;50.004;8.246;2023-05-07T00:33:57;16.00;99.90
10702;DHT22;5402;50.004;8.246;2023-05-07T00:36:24;15.80;99.90
10702;DHT22;5402;50.004;8.246;2023-05-07T00:38:54;15.90;99.90
10702;DHT22;5402;50.004;8.246;2023-05-07T00:41:21;15.90;99.90
10702;DHT22;5402;50.004;8.246;2023-05-07T00:43:48;15.80;99.90
10702;DHT22;5402;50.004;8.246;2023-05-07T00:46:17;15.80;99.90
10702;DHT22;5402;50.004;8.246;2023-05-07T00:48:43;15.70;99.90
10702;DHT22;5402;50.004;8.246;2023-05-07T00:51:12;15.60;99.90
10702;DHT22;5402;50.004;8.246;2023-05-07T00:53:39;15.70;99.90
10702;DHT22;5402;50.004;8.246;2023-05-07T00:56:06;15.70;99.90
10702;DHT22;5402;50.004;8.246;2023-05-07T00:58:33;15.60;99.90
10702;DHT22;5402;50.004;8.246;2023-05-07T01:01:00;15.50;99.90
10702;DHT22;5402;50.004;8.246;2023-05-07T01:03:27;15.50;99.90
10702;DHT22;5402;50.004;8.246;2023-05-07T01:05:54;15.40;99.90
10702;DHT22;5402;50.004;8.246;2023-05-07T01:08:23;15.40;99.90
10702;DHT22;5402;50.004;8.246;2023-05-07T01:10:52;15.50;99.90
10702;DHT22;5402;50.004;8.246;2023-05-07T01:13:19;15.40;99.90
10702;DHT22;5402;50.004;8.246;2023-05-07T01:15:46;15.40;99.90
10702;DHT22;5402;50.004;8.246;2023-05-07T01:18:13;15.40;99.90
10702;DHT22;5402;50.004;8.246;2023-05-07T01:20:41;15.40;99.90
10702;DHT22;5402;50.004;8.246;2023-05-07T01:23:11;15.40;99.90
10702;DHT22;5402;50.004;8.246;2023-05-07T01:25:37;15.30;99.90
10702;DHT22;5402;50.004;8.246;2023-05-07T01:28:04;15.30;99.90
10702;DHT22;5402;50.004;8.246;2023-05-07T01:30:33;15.30;99.90
10702;DHT22;5402;50.004;8.246;2023-05-07T01:33:04;15.30;99.90
10702;DHT22;5402;50.004;8.246;2023-05-07T01:35:37;15.40;99.90
10702;DHT22;5402;50.004;8.246;2023-05-07T01:38:05;15.30;99.90
10702;DHT22;5402;50.004;8.246;2023-05-07T01:40:34;15.40;99.90
10702;DHT22;5402;50.004;8.246;2023-05-07T01:43:02;15.30;99.90
10702;DHT22;5402;50.004;8.246;2023-05-07T01:45:30;15.30;99.90
10702;DHT22;5402;50.004;8.246;2023-05-07T01:47:58;15.30;99.90
10702;DHT22;5402;50.004;8.246;2023-05-07T01:50:25;15.30;99.90
10702;DHT22;5402;50.004;8.246;2023-05-07T01:52:52;15.30;99.90
10702;DHT22;5402;50.004;8.246;2023-05-07T01:55:19;15.30;99.90
10702;DHT22;5402;50.004;8.246;2023-05-07T01:57:47;15.20;99.90
10702;DHT22;5402;50.004;8.246;2023-05-07T02:00:14;15.30;99.90
10702;DHT22;5402;50.004;8.246;2023-05-07T02:02:41;15.30;99.90
10702;DHT22;5402;50.004;8.246;2023-05-07T02:05:08;15.40;99.90
10702;DHT22;5402;50.004;8.246;2023-05-07T02:07:35;15.30;99.90
10702;DHT22;5402;50.004;8.246;2023-05-07T02:10:02;15.30;99.90
10702;DHT22;5402;50.004;8.246;2023-05-07T02:12:29;15.30;99.90
10702;DHT22;5402;50.004;8.246;2023-05-07T02:14:57;15.30;99.90
10702;DHT22;5402;50.004;8.246;2023-05-07T02:17:24;15.30;99.90
10702;DHT22;5402;50.004;8.246;2023-05-07T02:19:51;15.40;99.90
10702;DHT22;5402;50.004;8.246;2023-05-07T02:22:18;15.30;99.90
10702;DHT22;5402;50.004;8.246;2023-05-07T02:24:44;15.30;99.90
10702;DHT22;5402;50.004;8.246;2023-05-07T02:27:11;15.40;99.90
10702;DHT22;5402;50.004;8.246;2023-05-07T02:29:38;15.30;99.90
10702;DHT22;5402;50.004;8.246;2023-05-07T02:32:06;15.20;99.90
10702;DHT22;5402;50.004;8.246;2023-05-07T02:34:33;15.30;99.90
10702;DHT22;5402;50.004;8.246;2023-05-07T02:36:59;15.30;99.90
10702;DHT22;5402;50.004;8.246;2023-05-07T02:39:26;15.10;99.90
10702;DHT22;5402;50.004;8.246;2023-05-07T02:41:53;15.10;99.90
10702;DHT22;5402;50.004;8.246;2023-05-07T02:44:20;15.20;99.90
10702;DHT22;5402;50.004;8.246;2023-05-07T02:46:47;15.20;99.90
10702;DHT22;5402;50.004;8.246;2023-05-07T02:49:15;15.20;99.90
10702;DHT22;5402;50.004;8.246;2023-05-07T02:51:41;15.10;99.90
10702;DHT22;5402;50.004;8.246;2023-05-07T02:54:08;15.10;99.90
10702;DHT22;5402;50.004;8.246;2023-05-07T02:56:34;15.00;99.90
10702;DHT22;5402;50.004;8.246;2023-05-07T02:59:01;15.00;99.90
10702;DHT22;5402;50.004;8.246;2023-05-07T03:01:28;15.00;99.90
10702;DHT22;5402;50.004;8.246;2023-05-07T03:03:54;15.00;99.90
10702;DHT22;5402;50.004;8.246;2023-05-07T03:06:23;15.00;99.90
10702;DHT22;5402;50.004;8.246;2023-05-07T03:08:50;15.10;99.90
10702;DHT22;5402;50.004;8.246;2023-05-07T03:11:16;15.10;99.90
10702;DHT22;5402;50.004;8.246;2023-05-07T03:13:43;15.00;99.90
10702;DHT22;5402;50.004;8.246;2023-05-07T03:16:10;14.90;99.90
10702;DHT22;5402;50.004;8.246;2023-05-07T03:18:37;15.00;99.90
10702;DHT22;5402;50.004;8.246;2023-05-07T03:21:03;15.00;99.90
10702;DHT22;5402;50.004;8.246;2023-05-07T03:23:31;15.00;99.90
10702;DHT22;5402;50.004;8.246;2023-05-07T03:25:58;14.90;99.90
10702;DHT22;5402;50.004;8.246;2023-05-07T03:28:25;14.90;99.90
10702;DHT22;5402;50.004;8.246;2023-05-07T03:30:51;14.90;99.90
10702;DHT22;5402;50.004;8.246;2023-05-07T03:33:18;14.90;99.90
10702;DHT22;5402;50.004;8.246;2023-05-07T03:35:45;15.00;99.90
10702;DHT22;5402;50.004;8.246;2023-05-07T03:38:11;15.10;99.90
10702;DHT22;5402;50.004;8.246;2023-05-07T03:40:39;15.00;99.90
10702;DHT22;5402;50.004;8.246;2023-05-07T03:43:06;15.00;99.90
10702;DHT22;5402;50.004;8.246;2023-05-07T03:45:33;15.00;99.90
10702;DHT22;5402;50.004;8.246;2023-05-07T03:48:00;15.00;99.90
10702;DHT22;5402;50.004;8.246;2023-05-07T03:50:26;15.10;99.90
10702;DHT22;5402;50.004;8.246;2023-05-07T03:52:53;15.10;99.90
10702;DHT22;5402;50.004;8.246;2023-05-07T03:55:20;15.00;99.90
10702;DHT22;5402;50.004;8.246;2023-05-07T03:57:48;15.10;99.90
10702;DHT22;5402;50.004;8.246;2023-05-07T04:00:15;15.10;99.90
10702;DHT22;5402;50.004;8.246;2023-05-07T04:02:42;15.10;99.90
10702;DHT22;5402;50.004;8.246;2023-05-07T04:05:08;15.10;99.90
10702;DHT22;5402;50.004;8.246;2023-05-07T04:07:35;15.10;99.90
10702;DHT22;5402;50.004;8.246;2023-05-07T04:10:02;15.10;99.90
10702;DHT22;5402;50.004;8.246;2023-05-07T04:12:29;15.10;99.90
10702;DHT22;5402;50.004;8.246;2023-05-07T04:14:57;15.00;99.90
10702;DHT22;5402;50.004;8.246;2023-05-07T04:17:23;15.00;99.90
10702;DHT22;5402;50.004;8.246;2023-05-07T04:19:50;15.10;99.90
10702;DHT22;5402;50.004;8.246;2023-05-07T04:22:17;15.00;99.90
10702;DHT22;5402;50.004;8.246;2023-05-07T04:24:44;15.10;99.90
10702;DHT22;5402;50.004;8.246;2023-05-07T04:27:10;15.00;99.90
10702;DHT22;5402;50.004;8.246;2023-05-07T04:29:37;15.00;99.90
10702;DHT22;5402;50.004;8.246;2023-05-07T04:32:09;15.10;99.90
10702;DHT22;5402;50.004;8.246;2023-05-07T04:34:35;15.10;99.90
10702;DHT22;5402;50.004;8.246;2023-05-07T04:37:02;15.10;99.90
10702;DHT22;5402;50.004;8.246;2023-05-07T04:39:28;15.10;99.90
10702;DHT22;5402;50.004;8.246;2023-05-07T04:41:55;15.20;99.90
10702;DHT22;5402;50.004;8.246;2023-05-07T04:44:22;15.20;99.90
10702;DHT22;5402;50.004;8.246;2023-05-07T04:46:49;15.30;99.90
10702;DHT22;5402;50.004;8.246;2023-05-07T04:49:17;15.10;99.90
10702;DHT22;5402;50.004;8.246;2023-05-07T04:51:43;15.20;99.90
10702;DHT22;5402;50.004;8.246;2023-05-07T04:54:10;15.20;99.90
10702;DHT22;5402;50.004;8.246;2023-05-07T04:56:37;15.30;99.90
10702;DHT22;5402;50.004;8.246;2023-05-07T04:59:04;15.40;99.90
10702;DHT22;5402;50.004;8.246;2023-05-07T05:01:31;15.50;99.90
10702;DHT22;5402;50.004;8.246;2023-05-07T05:03:58;15.50;99.90
10702;DHT22;5402;50.004;8.246;2023-05-07T05:06:26;15.60;99.90
10702;DHT22;5402;50.004;8.246;2023-05-07T05:08:53;15.70;99.90
10702;DHT22;5402;50.004;8.246;2023-05-07T05:11:20;15.70;99.90
10702;DHT22;5402;50.004;8.246;2023-05-07T05:13:47;15.70;99.90
10702;DHT22;5402;50.004;8.246;2023-05-07T05:16:14;15.80;99.90
10702;DHT22;5402;50.004;8.246;2023-05-07T05:18:41;15.90;99.90
10702;DHT22;5402;50.004;8.246;2023-05-07T05:21:08;16.00;99.90
10702;DHT22;5402;50.004;8.246;2023-05-07T05:23:36;16.00;99.90
10702;DHT22;5402;50.004;8.246;2023-05-07T05:26:03;16.10;99.90
10702;DHT22;5402;50.004;8.246;2023-05-07T05:28:29;16.20;99.90
10702;DHT22;5402;50.004;8.246;2023-05-07T05:30:56;16.10;99.90
10702;DHT22;5402;50.004;8.246;2023-05-07T05:33:23;16.10;99.90
10702;DHT22;5402;50.004;8.246;2023-05-07T05:35:50;16.20;99.90
10702;DHT22;5402;50.004;8.246;2023-05-07T05:38:16;16.30;99.90
10702;DHT22;5402;50.004;8.246;2023-05-07T05:40:45;16.30;99.90
10702;DHT22;5402;50.004;8.246;2023-05-07T05:43:11;16.40;99.90
10702;DHT22;5402;50.004;8.246;2023-05-07T05:45:38;16.40;99.90
10702;DHT22;5402;50.004;8.246;2023-05-07T05:48:05;16.50;99.90
10702;DHT22;5402;50.004;8.246;2023-05-07T05:50:33;16.50;99.90
10702;DHT22;5402;50.004;8.246;2023-05-07T05:53:01;16.60;99.90
10702;DHT22;5402;50.004;8.246;2023-05-07T05:55:27;16.70;99.90
10702;DHT22;5402;50.004;8.246;2023-05-07T05:57:56;16.70;99.90
10702;DHT22;5402;50.004;8.246;2023-05-07T06:00:23;16.70;99.90
10702;DHT22;5402;50.004;8.246;2023-05-07T06:02:49;16.70;99.90
10702;DHT22;5402;50.004;8.246;2023-05-07T06:05:16;16.80;99.90
10702;DHT22;5402;50.004;8.246;2023-05-07T06:07:43;16.80;99.90
10702;DHT22;5402;50.004;8.246;2023-05-07T06:10:11;16.90;99.90
10702;DHT22;5402;50.004;8.246;2023-05-07T06:12:38;17.00;99.90
10702;DHT22;5402;50.004;8.246;2023-05-07T06:15:06;17.10;99.90
10702;DHT22;5402;50.004;8.246;2023-05-07T06:17:34;17.20;99.90
10702;DHT22;5402;50.004;8.246;2023-05-07T06:20:00;17.20;99.90
10702;DHT22;5402;50.004;8.246;2023-05-07T06:22:27;17.30;99.90
10702;DHT22;5402;50.004;8.246;2023-05-07T06:24:54;17.50;99.90
10702;DHT22;5402;50.004;8.246;2023-05-07T06:27:20;17.50;99.90
10702;DHT22;5402;50.004;8.246;2023-05-07T06:29:48;17.80;99.90
10702;DHT22;5402;50.004;8.246;2023-05-07T06:32:16;17.70;99.90
10702;DHT22;5402;50.004;8.246;2023-05-07T06:34:43;17.80;99.90
10702;DHT22;5402;50.004;8.246;2023-05-07T06:37:10;17.80;99.90
10702;DHT22;5402;50.004;8.246;2023-05-07T06:39:36;17.90;99.90
10702;DHT22;5402;50.004;8.246;2023-05-07T06:42:03;17.90;99.90
10702;DHT22;5402;50.004;8.246;2023-05-07T06:44:31;17.90;99.90
10702;DHT22;5402;50.004;8.246;2023-05-07T06:46:57;17.90;99.90
10702;DHT22;5402;50.004;8.246;2023-05-07T06:49:26;17.90;99.90
10702;DHT22;5402;50.004;8.246;2023-05-07T06:51:52;17.90;99.90
10702;DHT22;5402;50.004;8.246;2023-05-07T06:54:19;17.90;99.90
10702;DHT22;5402;50.004;8.246;2023-05-07T06:56:46;17.80;99.90
10702;DHT22;5402;50.004;8.246;2023-05-07T06:59:13;17.80;99.90
10702;DHT22;5402;50.004;8.246;2023-05-07T07:01:39;17.80;99.90
10702;DHT22;5402;50.004;8.246;2023-05-07T07:04:06;17.90;99.90
10702;DHT22;5402;50.004;8.246;2023-05-07T07:06:34;17.90;99.90
10702;DHT22;5402;50.004;8.246;2023-05-07T07:09:01;17.80;99.90
10702;DHT22;5402;50.004;8.246;2023-05-07T07:11:28;17.80;99.90
10702;DHT22;5402;50.004;8.246;2023-05-07T07:13:55;17.80;99.90
10702;DHT22;5402;50.004;8.246;2023-05-07T07:16:22;17.80;99.90
10702;DHT22;5402;50.004;8.246;2023-05-07T07:18:48;17.80;99.90
10702;DHT22;5402;50.004;8.246;2023-05-07T07:21:15;17.90;99.90
10702;DHT22;5402;50.004;8.246;2023-05-07T07:23:43;18.00;99.90
10702;DHT22;5402;50.004;8.246;2023-05-07T07:26:10;18.00;99.90
10702;DHT22;5402;50.004;8.246;2023-05-07T07:28:42;18.00;99.90
10702;DHT22;5402;50.004;8.246;2023-05-07T07:31:09;18.00;99.90
10702;DHT22;5402;50.004;8.246;2023-05-07T07:33:36;18.10;99.90
10702;DHT22;5402;50.004;8.246;2023-05-07T07:36:05;18.00;99.90
10702;DHT22;5402;50.004;8.246;2023-05-07T07:38:31;18.10;99.90
10702;DHT22;5402;50.004;8.246;2023-05-07T07:40:59;18.10;99.90
10702;DHT22;5402;50.004;8.246;2023-05-07T07:43:26;18.00;99.90
10702;DHT22;5402;50.004;8.246;2023-05-07T07:45:53;18.00;99.90
10702;DHT22;5402;50.004;8.246;2023-05-07T07:48:20;18.10;99.90
10702;DHT22;5402;50.004;8.246;2023-05-07T07:50:49;18.10;99.90
10702;DHT22;5402;50.004;8.246;2023-05-07T07:53:16;18.10;99.90
10702;DHT22;5402;50.004;8.246;2023-05-07T07:55:43;18.10;99.90
10702;DHT22;5402;50.004;8.246;2023-05-07T07:58:11;18.10;99.90
10702;DHT22;5402;50.004;8.246;2023-05-07T08:00:38;18.20;99.90
10702;DHT22;5402;50.004;8.246;2023-05-07T08:03:04;18.30;99.90
10702;DHT22;5402;50.004;8.246;2023-05-07T08:05:32;18.40;99.90
10702;DHT22;5402;50.004;8.246;2023-05-07T08:07:59;18.50;99.90
10702;DHT22;5402;50.004;8.246;2023-05-07T08:10:26;18.60;99.90
10702;DHT22;5402;50.004;8.246;2023-05-07T08:12:55;18.60;99.90
10702;DHT22;5402;50.004;8.246;2023-05-07T08:15:23;18.60;99.90
10702;DHT22;5402;50.004;8.246;2023-05-07T08:17:49;18.70;99.90
10702;DHT22;5402;50.004;8.246;2023-05-07T08:20:16;18.70;99.90
10702;DHT22;5402;50.004;8.246;2023-05-07T08:22:43;18.80;99.90
10702;DHT22;5402;50.004;8.246;2023-05-07T08:25:10;18.80;99.90
10702;DHT22;5402;50.004;8.246;2023-05-07T08:27:36;18.80;99.90
10702;DHT22;5402;50.004;8.246;2023-05-07T08:30:04;18.90;99.90
10702;DHT22;5402;50.004;8.246;2023-05-07T08:32:32;18.90;99.90
10702;DHT22;5402;50.004;8.246;2023-05-07T08:34:59;18.90;99.90
10702;DHT22;5402;50.004;8.246;2023-05-07T08:37:26;18.90;99.90
10702;DHT22;5402;50.004;8.246;2023-05-07T08:39:54;19.00;99.90
10702;DHT22;5402;50.004;8.246;2023-05-07T08:42:23;19.10;99.90
10702;DHT22;5402;50.004;8.246;2023-05-07T08:44:51;19.30;99.90
10702;DHT22;5402;50.004;8.246;2023-05-07T08:47:20;19.40;99.90
10702;DHT22;5402;50.004;8.246;2023-05-07T08:49:50;19.50;99.90
10702;DHT22;5402;50.004;8.246;2023-05-07T08:52:17;19.60;99.90
10702;DHT22;5402;50.004;8.246;2023-05-07T08:54:45;19.70;99.90
10702;DHT22;5402;50.004;8.246;2023-05-07T08:57:12;19.80;99.90
10702;DHT22;5402;50.004;8.246;2023-05-07T08:59:40;20.10;99.90
10702;DHT22;5402;50.004;8.246;2023-05-07T09:02:09;20.10;99.90
10702;DHT22;5402;50.004;8.246;2023-05-07T09:04:36;20.20;99.90
10702;DHT22;5402;50.004;8.246;2023-05-07T09:07:04;20.30;99.90
10702;DHT22;5402;50.004;8.246;2023-05-07T09:09:32;20.20;99.90
10702;DHT22;5402;50.004;8.246;2023-05-07T09:11:59;20.20;99.90
10702;DHT22;5402;50.004;8.246;2023-05-07T09:14:27;20.30;99.90
10702;DHT22;5402;50.004;8.246;2023-05-07T09:16:54;20.30;99.90
10702;DHT22;5402;50.004;8.246;2023-05-07T09:19:22;20.50;99.90
10702;DHT22;5402;50.004;8.246;2023-05-07T09:21:49;20.50;99.90
10702;DHT22;5402;50.004;8.246;2023-05-07T09:24:17;20.60;99.90
10702;DHT22;5402;50.004;8.246;2023-05-07T09:26:44;20.70;99.90
10702;DHT22;5402;50.004;8.246;2023-05-07T09:29:11;20.80;99.90
10702;DHT22;5402;50.004;8.246;2023-05-07T09:31:38;20.80;99.90
10702;DHT22;5402;50.004;8.246;2023-05-07T09:34:05;20.70;99.90
10702;DHT22;5402;50.004;8.246;2023-05-07T09:36:33;20.70;99.90
10702;DHT22;5402;50.004;8.246;2023-05-07T09:39:00;20.80;99.90
10702;DHT22;5402;50.004;8.246;2023-05-07T09:41:30;20.70;99.90
10702;DHT22;5402;50.004;8.246;2023-05-07T09:43:57;20.60;99.90
10702;DHT22;5402;50.004;8.246;2023-05-07T09:46:28;20.70;99.90
10702;DHT22;5402;50.004;8.246;2023-05-07T09:48:57;20.70;99.90
10702;DHT22;5402;50.004;8.246;2023-05-07T09:51:29;20.70;99.90
10702;DHT22;5402;50.004;8.246;2023-05-07T09:53:57;20.80;99.90
10702;DHT22;5402;50.004;8.246;2023-05-07T09:56:27;20.90;99.90
10702;DHT22;5402;50.004;8.246;2023-05-07T09:58:57;21.00;99.90
10702;DHT22;5402;50.004;8.246;2023-05-07T10:01:25;21.10;99.90
10702;DHT22;5402;50.004;8.246;2023-05-07T10:03:52;21.10;99.90
10702;DHT22;5402;50.004;8.246;2023-05-07T10:06:20;21.40;99.90
10702;DHT22;5402;50.004;8.246;2023-05-07T10:08:48;21.60;99.90
10702;DHT22;5402;50.004;8.246;2023-05-07T10:11:16;21.80;99.90
10702;DHT22;5402;50.004;8.246;2023-05-07T10:13:44;22.00;99.90
10702;DHT22;5402;50.004;8.246;2023-05-07T10:16:12;22.20;99.90
10702;DHT22;5402;50.004;8.246;2023-05-07T10:18:40;22.30;99.90
10702;DHT22;5402;50.004;8.246;2023-05-07T10:21:09;22.30;99.90
10702;DHT22;5402;50.004;8.246;2023-05-07T10:23:38;22.30;99.90
10702;DHT22;5402;50.004;8.246;2023-05-07T10:26:07;22.40;99.90
10702;DHT22;5402;50.004;8.246;2023-05-07T10:28:37;22.60;99.90
10702;DHT22;5402;50.004;8.246;2023-05-07T10:31:22;22.50;99.90
10702;DHT22;5402;50.004;8.246;2023-05-07T10:33:53;22.30;99.90
10702;DHT22;5402;50.004;8.246;2023-05-07T10:36:22;22.30;99.90
10702;DHT22;5402;50.004;8.246;2023-05-07T10:38:49;22.30;99.90
10702;DHT22;5402;50.004;8.246;2023-05-07T10:41:16;22.40;99.90
10702;DHT22;5402;50.004;8.246;2023-05-07T10:43:45;22.30;99.90
10702;DHT22;5402;50.004;8.246;2023-05-07T10:46:15;22.40;99.90
10702;DHT22;5402;50.004;8.246;2023-05-07T10:49:06;22.50;99.90
10702;DHT22;5402;50.004;8.246;2023-05-07T10:51:34;22.50;99.90
10702;DHT22;5402;50.004;8.246;2023-05-07T10:54:21;22.50;99.90
10702;DHT22;5402;50.004;8.246;2023-05-07T10:56:48;22.60;99.90
10702;DHT22;5402;50.004;8.246;2023-05-07T10:59:38;22.50;99.90
10702;DHT22;5402;50.004;8.246;2023-05-07T11:02:10;22.60;99.90
10702;DHT22;5402;50.004;8.246;2023-05-07T11:04:39;22.60;99.90
10702;DHT22;5402;50.004;8.246;2023-05-07T11:07:28;22.60;99.90
10702;DHT22;5402;50.004;8.246;2023-05-07T11:09:56;22.60;99.90
10702;DHT22;5402;50.004;8.246;2023-05-07T11:12:51;22.60;99.90
10702;DHT22;5402;50.004;8.246;2023-05-07T11:15:44;22.70;99.90
10702;DHT22;5402;50.004;8.246;2023-05-07T11:18:16;22.70;99.90
10702;DHT22;5402;50.004;8.246;2023-05-07T11:20:54;22.70;99.90
10702;DHT22;5402;50.004;8.246;2023-05-07T11:23:55;22.80;99.90
10702;DHT22;5402;50.004;8.246;2023-05-07T11:26:27;23.00;99.90
10702;DHT22;5402;50.004;8.246;2023-05-07T11:28:55;23.00;99.90
10702;DHT22;5402;50.004;8.246;2023-05-07T11:31:24;23.00;99.90
10702;DHT22;5402;50.004;8.246;2023-05-07T11:33:53;23.00;99.90
10702;DHT22;5402;50.004;8.246;2023-05-07T11:36:22;23.20;99.90
10702;DHT22;5402;50.004;8.246;2023-05-07T11:38:49;23.30;99.90
10702;DHT22;5402;50.004;8.246;2023-05-07T11:41:16;23.40;99.90
10702;DHT22;5402;50.004;8.246;2023-05-07T11:43:55;23.50;99.90
10702;DHT22;5402;50.004;8.246;2023-05-07T11:46:22;23.50;99.90
10702;DHT22;5402;50.004;8.246;2023-05-07T11:48:49;23.50;99.90
10702;DHT22;5402;50.004;8.246;2023-05-07T11:51:21;23.40;99.90
10702;DHT22;5402;50.004;8.246;2023-05-07T11:53:48;23.50;99.90
10702;DHT22;5402;50.004;8.246;2023-05-07T11:56:16;23.50;99.90
10702;DHT22;5402;50.004;8.246;2023-05-07T11:58:44;23.70;99.90
10702;DHT22;5402;50.004;8.246;2023-05-07T12:01:13;23.70;99.90
10702;DHT22;5402;50.004;8.246;2023-05-07T12:03:41;23.90;99.90
10702;DHT22;5402;50.004;8.246;2023-05-07T12:06:09;23.80;99.80
10702;DHT22;5402;50.004;8.246;2023-05-07T12:08:38;24.00;99.90
10702;DHT22;5402;50.004;8.246;2023-05-07T12:11:12;24.20;99.90
10702;DHT22;5402;50.004;8.246;2023-05-07T12:13:40;24.00;99.30
10702;DHT22;5402;50.004;8.246;2023-05-07T12:16:07;24.20;99.10
10702;DHT22;5402;50.004;8.246;2023-05-07T12:18:35;24.20;99.30
10702;DHT22;5402;50.004;8.246;2023-05-07T12:21:04;24.20;99.00
10702;DHT22;5402;50.004;8.246;2023-05-07T12:23:31;24.30;98.90
10702;DHT22;5402;50.004;8.246;2023-05-07T12:26:00;24.30;99.10
10702;DHT22;5402;50.004;8.246;2023-05-07T12:28:27;24.40;98.60
10702;DHT22;5402;50.004;8.246;2023-05-07T12:30:54;24.60;98.40
10702;DHT22;5402;50.004;8.246;2023-05-07T12:33:25;24.70;97.70
10702;DHT22;5402;50.004;8.246;2023-05-07T12:35:54;25.00;97.40
10702;DHT22;5402;50.004;8.246;2023-05-07T12:38:22;24.90;97.50
10702;DHT22;5402;50.004;8.246;2023-05-07T12:40:50;24.90;98.00
10702;DHT22;5402;50.004;8.246;2023-05-07T12:43:19;24.70;96.90
10702;DHT22;5402;50.004;8.246;2023-05-07T12:45:48;25.00;96.50
10702;DHT22;5402;50.004;8.246;2023-05-07T12:48:15;25.10;96.60
10702;DHT22;5402;50.004;8.246;2023-05-07T12:50:42;25.10;96.20
10702;DHT22;5402;50.004;8.246;2023-05-07T12:53:11;24.80;96.90
10702;DHT22;5402;50.004;8.246;2023-05-07T12:55:42;24.70;97.10
10702;DHT22;5402;50.004;8.246;2023-05-07T12:58:15;24.50;96.90
10702;DHT22;5402;50.004;8.246;2023-05-07T13:00:45;24.50;97.20
10702;DHT22;5402;50.004;8.246;2023-05-07T13:03:21;24.50;96.30
10702;DHT22;5402;50.004;8.246;2023-05-07T13:05:48;24.60;94.70
10702;DHT22;5402;50.004;8.246;2023-05-07T13:08:27;24.60;95.30
10702;DHT22;5402;50.004;8.246;2023-05-07T13:10:54;24.70;94.90
10702;DHT22;5402;50.004;8.246;2023-05-07T13:13:21;24.90;94.50
10702;DHT22;5402;50.004;8.246;2023-05-07T13:15:50;24.90;94.10
10702;DHT22;5402;50.004;8.246;2023-05-07T13:18:17;25.10;94.70
10702;DHT22;5402;50.004;8.246;2023-05-07T13:20:43;25.30;94.00
10702;DHT22;5402;50.004;8.246;2023-05-07T13:23:10;25.20;94.00
10702;DHT22;5402;50.004;8.246;2023-05-07T13:25:37;25.20;93.40
10702;DHT22;5402;50.004;8.246;2023-05-07T13:28:04;25.30;92.80
10702;DHT22;5402;50.004;8.246;2023-05-07T13:30:30;25.40;92.70
10702;DHT22;5402;50.004;8.246;2023-05-07T13:32:58;25.30;92.90
10702;DHT22;5402;50.004;8.246;2023-05-07T13:35:25;25.20;93.30
10702;DHT22;5402;50.004;8.246;2023-05-07T13:37:52;25.10;93.60
10702;DHT22;5402;50.004;8.246;2023-05-07T13:40:21;25.10;93.60
10702;DHT22;5402;50.004;8.246;2023-05-07T13:42:48;25.10;93.40
10702;DHT22;5402;50.004;8.246;2023-05-07T13:45:16;25.20;93.00
10702;DHT22;5402;50.004;8.246;2023-05-07T13:47:43;25.30;94.10
10702;DHT22;5402;50.004;8.246;2023-05-07T13:50:12;25.50;93.70
10702;DHT22;5402;50.004;8.246;2023-05-07T13:52:41;25.60;93.70
10702;DHT22;5402;50.004;8.246;2023-05-07T13:55:09;25.40;93.30
10702;DHT22;5402;50.004;8.246;2023-05-07T13:57:36;25.40;93.50
10702;DHT22;5402;50.004;8.246;2023-05-07T14:00:03;25.30;93.00
10702;DHT22;5402;50.004;8.246;2023-05-07T14:02:30;25.10;93.50
10702;DHT22;5402;50.004;8.246;2023-05-07T14:04:57;25.10;93.20
10702;DHT22;5402;50.004;8.246;2023-05-07T14:07:25;25.00;92.60
10702;DHT22;5402;50.004;8.246;2023-05-07T14:09:52;24.90;92.70
10702;DHT22;5402;50.004;8.246;2023-05-07T14:12:18;24.90;92.60
10702;DHT22;5402;50.004;8.246;2023-05-07T14:14:45;25.10;92.30
10702;DHT22;5402;50.004;8.246;2023-05-07T14:17:12;25.30;92.00
10702;DHT22;5402;50.004;8.246;2023-05-07T14:19:39;25.10;91.50
10702;DHT22;5402;50.004;8.246;2023-05-07T14:22:05;24.90;91.30
10702;DHT22;5402;50.004;8.246;2023-05-07T14:24:33;25.00;92.50
10702;DHT22;5402;50.004;8.246;2023-05-07T14:27:00;25.10;92.90
10702;DHT22;5402;50.004;8.246;2023-05-07T14:29:27;25.00;92.60
10702;DHT22;5402;50.004;8.246;2023-05-07T14:31:54;25.00;92.70
10702;DHT22;5402;50.004;8.246;2023-05-07T14:34:21;25.10;92.40
10702;DHT22;5402;50.004;8.246;2023-05-07T14:36:49;25.10;92.40
10702;DHT22;5402;50.004;8.246;2023-05-07T14:39:15;25.30;92.60
10702;DHT22;5402;50.004;8.246;2023-05-07T14:41:43;25.20;92.10
10702;DHT22;5402;50.004;8.246;2023-05-07T14:44:13;25.20;92.20
10702;DHT22;5402;50.004;8.246;2023-05-07T14:46:40;25.10;92.20
10702;DHT22;5402;50.004;8.246;2023-05-07T14:49:07;25.10;92.70
10702;DHT22;5402;50.004;8.246;2023-05-07T14:51:41;25.10;92.40
10702;DHT22;5402;50.004;8.246;2023-05-07T14:54:08;24.90;93.20
10702;DHT22;5402;50.004;8.246;2023-05-07T14:56:35;24.80;93.70
10702;DHT22;5402;50.004;8.246;2023-05-07T14:59:03;24.70;94.00
10702;DHT22;5402;50.004;8.246;2023-05-07T15:01:30;24.60;94.30
10702;DHT22;5402;50.004;8.246;2023-05-07T15:03:57;24.40;94.50
10702;DHT22;5402;50.004;8.246;2023-05-07T15:06:23;24.30;94.90
10702;DHT22;5402;50.004;8.246;2023-05-07T15:08:50;24.20;95.30
10702;DHT22;5402;50.004;8.246;2023-05-07T15:11:17;24.10;95.30
10702;DHT22;5402;50.004;8.246;2023-05-07T15:13:44;24.10;95.80
10702;DHT22;5402;50.004;8.246;2023-05-07T15:16:12;24.10;95.20
10702;DHT22;5402;50.004;8.246;2023-05-07T15:18:39;24.10;95.50
10702;DHT22;5402;50.004;8.246;2023-05-07T15:21:06;24.00;95.60
10702;DHT22;5402;50.004;8.246;2023-05-07T15:23:33;24.00;95.80
10702;DHT22;5402;50.004;8.246;2023-05-07T15:26:00;23.80;95.80
10702;DHT22;5402;50.004;8.246;2023-05-07T15:28:26;23.80;96.20
10702;DHT22;5402;50.004;8.246;2023-05-07T15:30:53;23.80;96.00
10702;DHT22;5402;50.004;8.246;2023-05-07T15:33:22;23.80;96.20
10702;DHT22;5402;50.004;8.246;2023-05-07T15:35:48;23.80;96.30
10702;DHT22;5402;50.004;8.246;2023-05-07T15:38:15;23.70;96.70
10702;DHT22;5402;50.004;8.246;2023-05-07T15:40:42;23.50;96.70
10702;DHT22;5402;50.004;8.246;2023-05-07T15:43:09;23.50;96.80
10702;DHT22;5402;50.004;8.246;2023-05-07T15:45:38;23.50;97.20
10702;DHT22;5402;50.004;8.246;2023-05-07T15:48:06;23.30;97.60
10702;DHT22;5402;50.004;8.246;2023-05-07T15:50:34;23.00;99.50